Time;durP1;ratioP1;P1;durP2;ratioP2;P2;SDS_P1;SDS_P2;PMS_P1;PMS_P2;Temp;Humidity;BMP_temperature;BMP_pressure;BME280_temperature;BME280_humidity;BME280_pressure;Samples;Min_cycle;Max_cycle;Signal;HPM_P1;HPM_P2
2022/04/05 00:00:33;;;;;;;14.38;8.65;;;;;;;5.81;54.30;99288.28;4459391;32;32436;-75
2022/04/05 00:03:04;;;;;;;13.50;8.55;;;;;;;5.99;53.73;99286.03;4472286;32;33352;-75
2022/04/05 00:05:32;;;;;;;14.20;8.10;;;;;;;5.89;53.97;99275.44;4486123;32;34621;-74
2022/04/05 00:08:01;;;;;;;14.65;8.10;;;;;;;5.94;54.19;99275.69;4472097;32;34323;-75
2022/04/05 00:10:34;;;;;;;18.17;9.57;;;;;;;6.09;53.49;99275.69;4472375;32;32094;-75
2022/04/05 00:13:07;;;;;;;16.77;9.63;;;;;;;5.93;53.80;99271.28;4486455;32;33494;-74
2022/04/05 00:15:36;;;;;;;17.15;8.85;;;;;;;6.04;53.62;99274.56;4486155;32;33618;-75
2022/04/05 00:18:09;;;;;;;13.32;9.20;;;;;;;6.13;53.46;99262.53;4484999;32;35615;-75
2022/04/05 00:20:39;;;;;;;14.55;8.30;;;;;;;6.11;53.54;99265.44;4486385;32;33976;-74
2022/04/05 00:23:07;;;;;;;15.25;8.73;;;;;;;6.23;53.28;99263.06;4485062;32;33547;-74
2022/04/05 00:25:35;;;;;;;13.40;8.65;;;;;;;6.19;53.29;99275.41;4472015;32;33728;-75
2022/04/05 00:28:04;;;;;;;14.75;8.93;;;;;;;6.19;53.04;99264.50;4471808;32;32984;-75
2022/04/05 00:30:32;;;;;;;17.08;9.13;;;;;;;6.39;52.69;99268.28;4485968;32;33923;-75
2022/04/05 00:33:00;;;;;;;15.43;10.68;;;;;;;6.28;52.95;99264.19;4484147;32;33544;-75
2022/04/05 00:35:28;;;;;;;16.02;9.90;;;;;;;6.32;53.05;99269.25;4484796;32;33664;-75
2022/04/05 00:37:55;;;;;;;13.95;9.48;;;;;;;6.43;52.86;99272.34;4484865;32;32786;-75
2022/04/05 00:40:25;;;;;;;15.43;9.25;;;;;;;6.26;53.57;99260.81;4485938;32;34659;-75
2022/04/05 00:42:55;;;;;;;13.62;8.35;;;;;;;6.17;53.69;99256.50;4484721;32;33357;-75
2022/04/05 00:45:23;;;;;;;15.52;8.52;;;;;;;6.13;53.81;99249.75;4484868;32;33818;-75
2022/04/05 00:47:51;;;;;;;13.88;8.65;;;;;;;6.01;54.38;99245.84;4483989;32;34436;-75
2022/04/05 00:50:20;;;;;;;13.93;8.73;;;;;;;6.18;54.13;99241.84;4484659;32;34095;-75
2022/04/05 00:52:51;;;;;;;13.95;8.50;;;;;;;6.18;54.27;99246.47;4484783;32;33253;-74
2022/04/05 00:55:23;;;;;;;13.65;8.85;;;;;;;6.19;54.53;99234.53;4484542;32;32283;-74
2022/04/05 00:57:54;;;;;;;15.48;9.40;;;;;;;6.38;54.09;99241.25;4471868;32;33378;-75
2022/04/05 01:00:24;;;;;;;12.65;8.77;;;;;;;6.39;54.07;99234.75;4471639;32;33050;-75
2022/04/05 01:02:53;;;;;;;14.10;8.48;;;;;;;6.42;53.96;99235.22;4485692;32;33399;-75
2022/04/05 01:05:21;;;;;;;16.15;8.88;;;;;;;6.39;54.09;99229.28;4471762;32;34502;-75
2022/04/05 01:07:51;;;;;;;17.60;9.80;;;;;;;6.40;54.14;99229.09;4485680;32;34321;-75
2022/04/05 01:10:21;;;;;;;18.60;9.73;;;;;;;6.37;54.15;99228.66;4484570;32;33975;-75
2022/04/05 01:12:50;;;;;;;17.10;9.82;;;;;;;6.52;53.87;99237.59;4484601;32;33966;-75
2022/04/05 01:15:36;;;;;;;17.42;10.27;;;;;;;6.54;53.89;99233.63;4484585;32;33469;-75
2022/04/05 01:18:04;;;;;;;19.20;12.73;;;;;;;6.49;54.01;99235.28;4484498;32;35175;-75
2022/04/05 01:20:34;;;;;;;15.02;10.27;;;;;;;6.63;53.74;99231.63;4471266;32;33409;-75
2022/04/05 01:23:01;;;;;;;16.98;9.35;;;;;;;6.42;54.64;99231.63;4484538;32;33442;-75
2022/04/05 01:25:29;;;;;;;14.15;9.02;;;;;;;6.51;54.53;99225.84;4484349;32;33652;-75
2022/04/05 01:27:57;;;;;;;17.33;10.30;;;;;;;6.50;54.67;99223.34;4484211;32;34002;-75
2022/04/05 01:30:27;;;;;;;13.30;8.43;;;;;;;6.61;54.41;99230.97;4484448;32;34572;-75
2022/04/05 01:32:59;;;;;;;13.55;8.70;;;;;;;6.69;54.19;99222.66;4484464;32;33406;-75
2022/04/05 01:35:26;;;;;;;12.57;8.70;;;;;;;6.62;54.45;99222.59;4484254;32;33266;-75
2022/04/05 01:37:54;;;;;;;14.27;8.40;;;;;;;6.56;54.66;99217.91;4458570;32;33945;-74
2022/04/05 01:40:25;;;;;;;13.65;8.38;;;;;;;6.62;54.62;99228.03;4485468;32;34675;-75
2022/04/05 01:42:52;;;;;;;14.40;9.20;;;;;;;6.71;54.39;99219.75;4484330;32;33111;-75
2022/04/05 01:45:21;;;;;;;16.60;10.23;;;;;;;6.58;54.81;99220.44;4484075;32;32107;-75
2022/04/05 01:47:49;;;;;;;15.45;9.63;;;;;;;6.69;54.55;99222.66;4484014;32;35106;-75
2022/04/05 01:50:17;;;;;;;14.38;8.85;;;;;;;6.45;55.08;99229.38;4484071;32;34512;-75
2022/04/05 01:52:47;;;;;;;15.68;8.55;;;;;;;6.64;54.44;99227.84;4484195;32;33252;-74
2022/04/05 01:55:14;;;;;;;15.30;8.00;;;;;;;6.58;54.34;99217.72;4485227;32;33838;-75
2022/04/05 01:57:46;;;;;;;13.95;8.35;;;;;;;6.66;54.30;99217.59;4483705;32;34506;-74
2022/04/05 02:00:17;;;;;;;15.93;8.82;;;;;;;6.56;54.66;99219.81;4471193;32;34531;-75
2022/04/05 02:02:45;;;;;;;15.25;8.93;;;;;;;6.45;54.85;99213.03;4483834;32;31807;-74
2022/04/05 02:05:13;;;;;;;14.48;9.43;;;;;;;6.56;54.46;99214.34;4483898;32;33722;-74
2022/04/05 02:07:42;;;;;;;15.70;9.23;;;;;;;6.68;54.23;99206.50;4470917;32;33945;-75
2022/04/05 02:10:10;;;;;;;59.40;33.92;;;;;;;6.74;54.32;99211.16;4484809;32;33660;-75
2022/04/05 02:12:41;;;;;;;26.98;16.45;;;;;;;6.71;54.56;99206.09;4485008;32;33457;-74
2022/04/05 02:15:09;;;;;;;20.30;11.75;;;;;;;6.64;55.01;99197.88;4484742;32;33563;-75
2022/04/05 02:17:46;;;;;;;31.55;18.50;;;;;;;6.84;54.57;99201.63;4483945;32;35191;-74
2022/04/05 02:20:15;;;;;;;41.83;25.77;;;;;;;6.81;54.63;99210.19;4471452;32;33434;-75
2022/04/05 02:22:43;;;;;;;15.98;10.77;;;;;;;6.71;54.98;99197.91;4484670;32;33470;-75
2022/04/05 02:25:19;;;;;;;17.17;9.63;;;;;;;6.77;54.87;99195.25;4483888;32;34440;-75
2022/04/05 02:27:47;;;;;;;15.30;8.90;;;;;;;6.88;54.52;99194.72;4483534;32;35175;-74
2022/04/05 02:30:16;;;;;;;14.75;8.98;;;;;;;6.89;54.46;99196.41;4484535;32;34119;-75
2022/04/05 02:32:46;;;;;;;13.27;8.85;;;;;;;6.83;54.59;99196.34;4483808;32;33837;-75
2022/04/05 02:35:14;;;;;;;14.00;8.80;;;;;;;6.85;54.75;99195.13;4483732;32;33679;-75
2022/04/05 02:37:42;;;;;;;14.90;8.65;;;;;;;6.89;54.75;99195.56;4483457;32;34416;-74
2022/04/05 02:40:11;;;;;;;16.02;8.75;;;;;;;6.89;54.81;99173.75;4470568;32;32942;-75
2022/04/05 02:42:44;;;;;;;14.40;8.82;;;;;;;6.90;54.67;99175.44;4484489;32;33471;-75
2022/04/05 02:45:14;;;;;;;14.13;8.77;;;;;;;6.94;54.83;99182.19;4483418;32;33548;-75
2022/04/05 02:47:48;;;;;;;13.20;8.52;;;;;;;7.03;54.76;99175.53;4483579;32;35054;-75
2022/04/05 02:50:17;;;;;;;13.80;8.38;;;;;;;6.96;55.00;99173.78;4483095;32;33957;-75
2022/04/05 02:52:47;;;;;;;14.57;9.05;;;;;;;7.01;54.92;99172.16;4484405;32;33235;-74
2022/04/05 02:55:15;;;;;;;14.02;9.10;;;;;;;6.88;55.21;99170.19;4471375;32;33889;-75
2022/04/05 02:57:47;;;;;;;14.07;8.75;;;;;;;6.91;55.35;99167.06;4472381;32;34315;-74
2022/04/05 03:00:15;;;;;;;15.00;8.90;;;;;;;6.93;55.10;99164.97;4485869;32;33945;-75
2022/04/05 03:02:48;;;;;;;13.07;8.13;;;;;;;6.81;55.29;99163.81;4486621;32;33548;-74
2022/04/05 03:05:21;;;;;;;15.43;9.32;;;;;;;7.01;54.66;99161.25;4486918;32;34513;-74
2022/04/05 03:07:49;;;;;;;14.50;9.23;;;;;;;6.79;54.93;99162.34;4485420;32;34401;-74
2022/04/05 03:10:17;;;;;;;14.48;8.27;;;;;;;7.08;54.04;99166.75;4485269;32;33901;-75
2022/04/05 03:12:48;;;;;;;14.07;8.98;;;;;;;7.15;53.85;99149.34;4485658;32;33249;-75
2022/04/05 03:15:16;;;;;;;16.48;10.32;;;;;;;7.11;54.32;99145.38;4472262;32;32440;-74
2022/04/05 03:17:45;;;;;;;14.48;8.95;;;;;;;7.10;54.74;99146.41;4485159;32;34453;-75
2022/04/05 03:20:14;;;;;;;17.45;11.02;;;;;;;7.18;54.50;99140.78;4472323;32;32292;-75
2022/04/05 03:22:49;;;;;;;14.55;10.10;;;;;;;7.20;54.44;99135.94;4486591;32;33347;-75
2022/04/05 03:25:21;;;;;;;14.55;9.25;;;;;;;7.27;54.34;99131.38;4472543;32;34620;-75
2022/04/05 03:27:49;;;;;;;12.65;8.68;;;;;;;7.27;54.43;99136.00;4472517;32;33629;-75
2022/04/05 03:30:19;;;;;;;15.05;7.85;;;;;;;7.21;54.63;99129.44;4484988;32;33834;-75
2022/04/05 03:32:47;;;;;;;13.90;8.80;;;;;;;7.38;54.30;99140.88;4472166;32;33376;-75
2022/04/05 03:35:19;;;;;;;14.57;9.05;;;;;;;7.29;54.65;99139.37;4485503;32;34569;-75
2022/04/05 03:37:50;;;;;;;15.02;9.60;;;;;;;7.26;54.69;99140.59;4485310;32;34285;-75
2022/04/05 03:40:18;;;;;;;14.43;9.93;;;;;;;7.12;55.10;99140.75;4486636;32;34577;-74
2022/04/05 03:42:46;;;;;;;14.95;9.57;;;;;;;7.01;55.40;99139.44;4485385;32;33404;-75
2022/04/05 03:45:14;;;;;;;16.50;9.25;;;;;;;7.17;54.87;99139.09;4485539;32;33715;-75
2022/04/05 03:47:47;;;;;;;13.55;8.80;;;;;;;7.16;54.73;99133.81;4485164;32;35386;-74
2022/04/05 03:50:18;;;;;;;14.50;8.82;;;;;;;7.05;55.05;99127.06;4485041;32;33916;-73
2022/04/05 03:52:51;;;;;;;15.38;8.40;;;;;;;7.01;55.16;99141.31;4485348;32;33580;-75
2022/04/05 03:55:24;;;;;;;12.45;8.75;;;;;;;6.88;55.12;99136.59;4485137;32;33584;-83
2022/04/05 03:57:52;;;;;;;13.62;8.23;;;;;;;7.10;54.25;99127.31;4472430;32;35090;-82
2022/04/05 04:00:20;;;;;;;15.65;8.80;;;;;;;6.89;54.68;99127.38;4472303;32;34019;-84
2022/04/05 04:02:49;;;;;;;14.57;8.70;;;;;;;6.96;54.20;99119.25;4472254;32;33340;-73
2022/04/05 04:05:20;;;;;;;14.75;8.25;;;;;;;6.86;54.66;99125.88;4486265;32;33616;-72
2022/04/05 04:07:48;;;;;;;14.55;8.38;;;;;;;7.00;54.29;99129.56;4484162;32;34357;-72
2022/04/05 04:10:17;;;;;;;13.35;8.23;;;;;;;6.86;54.74;99119.59;4472142;32;34703;-72
2022/04/05 04:12:53;;;;;;;13.52;8.63;;;;;;;6.93;54.64;99132.25;4473051;32;33846;-73
2022/04/05 04:15:22;;;;;;;14.00;8.43;;;;;;;7.13;54.10;99123.34;4471401;32;33062;-72
2022/04/05 04:17:51;;;;;;;11.65;7.78;;;;;;;7.09;54.41;99130.25;4484576;32;34319;-73
2022/04/05 04:20:19;;;;;;;12.50;7.07;;;;;;;7.26;54.10;99128.84;4485848;32;34706;-72
2022/04/05 04:22:47;;;;;;;15.10;7.32;;;;;;;7.25;54.34;99127.16;4472354;32;33806;-72
2022/04/05 04:25:17;;;;;;;13.32;8.32;;;;;;;7.21;54.55;99123.16;4485891;32;33863;-72
2022/04/05 04:27:47;;;;;;;15.43;8.95;;;;;;;7.20;54.89;99119.56;4486280;32;34047;-72
2022/04/05 04:30:15;;;;;;;15.77;8.65;;;;;;;7.12;54.96;99124.37;4485941;32;34656;-72
2022/04/05 04:32:43;;;;;;;11.52;6.78;;;;;;;7.16;55.05;99121.03;4484956;32;33264;-70
2022/04/05 04:35:11;;;;;;;16.40;8.88;;;;;;;7.24;56.63;99122.75;4486105;32;33663;-71
2022/04/05 04:37:39;;;;;;;18.37;8.27;;;;;;;7.50;59.34;99124.78;4484555;32;34674;-72
2022/04/05 04:40:08;;;;;;;15.55;7.45;;;;;;;7.38;55.28;99123.66;4484579;32;34680;-72
2022/04/05 04:42:35;;;;;;;11.07;7.30;;;;;;;7.35;54.33;99119.44;4486208;32;33429;-72
2022/04/05 04:45:03;;;;;;;11.20;6.95;;;;;;;7.39;53.80;99120.72;4485993;32;34567;-72
2022/04/05 04:47:31;;;;;;;12.37;7.25;;;;;;;7.47;53.36;99127.91;4471857;32;32953;-72
2022/04/05 04:50:01;;;;;;;13.30;6.90;;;;;;;7.45;52.86;99119.94;4485957;32;33891;-72
2022/04/05 04:52:28;;;;;;;11.30;6.85;;;;;;;7.36;53.26;99125.75;4485786;32;32162;-74
2022/04/05 04:54:59;;;;;;;14.57;8.32;;;;;;;7.56;52.43;99133.00;4471894;32;33657;-69
2022/04/05 04:57:26;;;;;;;13.95;7.40;;;;;;;7.47;53.13;99122.44;4485836;32;34446;-72
2022/04/05 04:59:54;;;;;;;15.88;8.45;;;;;;;7.48;55.64;99127.72;4484557;32;32446;-72
2022/04/05 05:02:29;;;;;;;14.30;8.88;;;;;;;7.56;53.21;99133.00;4484166;32;34155;-72
2022/04/05 05:04:57;;;;;;;21.05;11.35;;;;;;;7.48;52.86;99129.59;4484437;32;33762;-73
2022/04/05 05:07:25;;;;;;;15.63;9.13;;;;;;;7.47;52.85;99131.50;4477180;32;34139;-73
2022/04/05 05:09:52;;;;;;;14.38;8.18;;;;;;;7.41;53.27;99131.44;4462814;32;34479;-73
2022/04/05 05:12:23;;;;;;;12.65;8.05;;;;;;;7.60;52.91;99126.09;4468062;32;33410;-73
2022/04/05 05:14:51;;;;;;;12.55;7.28;;;;;;;7.46;52.95;99120.75;4480983;32;33593;-74
2022/04/05 05:17:18;;;;;;;11.82;7.55;;;;;;;7.60;52.65;99122.50;4484136;32;34364;-73
2022/04/05 05:19:47;;;;;;;12.55;8.00;;;;;;;7.48;52.98;99124.97;4483731;32;33733;-74
2022/04/05 05:22:14;;;;;;;15.27;8.05;;;;;;;7.58;52.97;99127.34;4485535;32;34061;-74
2022/04/05 05:24:42;;;;;;;13.73;7.28;;;;;;;7.75;52.89;99116.91;4483673;32;34288;-73
2022/04/05 05:27:09;;;;;;;11.63;6.90;;;;;;;7.62;52.54;99117.69;4483524;32;34607;-74
2022/04/05 05:29:37;;;;;;;12.02;6.80;;;;;;;8.01;51.17;99119.69;4469564;32;32423;-74
2022/04/05 05:32:05;;;;;;;12.98;7.35;;;;;;;7.54;52.64;99118.72;4483741;32;33835;-73
2022/04/05 05:34:35;;;;;;;14.85;7.95;;;;;;;7.78;52.38;99128.25;4471358;32;33042;-74
2022/04/05 05:37:05;;;;;;;13.45;7.93;;;;;;;7.83;52.33;99117.53;4483928;32;32899;-73
2022/04/05 05:39:32;;;;;;;17.20;7.75;;;;;;;7.74;52.60;99123.41;4471062;32;32551;-74
2022/04/05 05:42:00;;;;;;;15.65;7.57;;;;;;;7.77;52.55;99117.53;4484879;32;33385;-73
2022/04/05 05:44:28;;;;;;;11.68;7.50;;;;;;;8.21;57.74;99115.09;4481873;32;33684;-73
2022/04/05 05:46:55;;;;;;;16.58;7.45;;;;;;;8.18;53.34;99115.53;4483433;32;35378;-73
2022/04/05 05:49:23;;;;;;;12.70;6.87;;;;;;;8.29;51.90;99115.97;4483551;32;33763;-74
2022/04/05 05:51:51;;;;;;;16.52;7.65;;;;;;;8.23;50.68;99126.69;4483582;32;34106;-73
2022/04/05 05:54:18;;;;;;;15.27;7.35;;;;;;;8.27;51.15;99130.69;4483456;32;33607;-73
2022/04/05 05:56:48;;;;;;;17.40;7.93;;;;;;;8.26;50.86;99139.09;4483686;32;35147;-73
2022/04/05 05:59:16;;;;;;;15.10;7.12;;;;;;;8.16;51.67;99139.50;4484749;32;34118;-73
2022/04/05 06:01:43;;;;;;;11.98;7.05;;;;;;;8.27;51.66;99152.56;4485034;32;33124;-74
2022/04/05 06:04:11;;;;;;;10.65;6.82;;;;;;;8.36;50.95;99146.94;4483594;32;32444;-74
2022/04/05 06:06:38;;;;;;;18.70;8.55;;;;;;;8.10;51.48;99145.78;4470706;32;33872;-74
2022/04/05 06:09:06;;;;;;;16.50;8.35;;;;;;;8.36;51.41;99147.75;4467682;32;34157;-73
2022/04/05 06:11:34;;;;;;;17.90;8.05;;;;;;;8.39;51.37;99147.34;4467738;32;34103;-73
2022/04/05 06:14:01;;;;;;;14.82;7.12;;;;;;;8.63;51.12;99145.03;4468089;32;33891;-74
2022/04/05 06:16:29;;;;;;;11.63;7.25;;;;;;;8.68;51.34;99142.50;4468162;32;34384;-74
2022/04/05 06:19:00;;;;;;;16.62;7.75;;;;;;;8.78;51.54;99145.66;4467748;32;33762;-74
2022/04/05 06:21:27;;;;;;;12.90;7.53;;;;;;;8.75;51.50;99151.56;4454834;32;32025;-74
2022/04/05 06:23:55;;;;;;;13.35;7.95;;;;;;;8.85;50.99;99150.09;4467767;32;33667;-74
2022/04/05 06:26:23;;;;;;;13.00;7.22;;;;;;;9.02;50.61;99147.75;4469190;32;35423;-73
2022/04/05 06:28:50;;;;;;;16.17;7.43;;;;;;;9.28;50.46;99138.66;4467752;32;34072;-73
2022/04/05 06:31:18;;;;;;;9.82;6.10;;;;;;;9.37;49.97;99137.34;4456276;32;32349;-73
2022/04/05 06:33:45;;;;;;;13.18;5.93;;;;;;;9.33;49.01;99141.59;4471040;32;34375;-73
2022/04/05 06:36:16;;;;;;;9.88;5.85;;;;;;;9.34;48.47;99142.44;4471024;32;34597;-73
2022/04/05 06:38:43;;;;;;;10.27;6.37;;;;;;;9.32;48.87;99133.56;4457343;32;32434;-75
2022/04/05 06:41:17;;;;;;;10.52;5.97;;;;;;;9.52;49.02;99134.38;4469672;32;33370;-73
2022/04/05 06:43:45;;;;;;;8.93;5.93;;;;;;;10.10;48.36;99131.56;4456895;32;33474;-73
2022/04/05 06:46:15;;;;;;;12.57;6.28;;;;;;;10.35;47.84;99134.41;4471247;32;35067;-73
2022/04/05 06:48:42;;;;;;;10.18;5.95;;;;;;;10.23;46.15;99137.00;4469833;32;33683;-73
2022/04/05 06:51:10;;;;;;;10.95;6.25;;;;;;;9.95;46.96;99129.09;4456476;32;33281;-73
2022/04/05 06:53:42;;;;;;;9.70;6.15;;;;;;;10.26;46.85;99135.72;4470878;32;33479;-73
2022/04/05 06:56:12;;;;;;;9.18;5.87;;;;;;;10.00;47.36;99129.28;4457041;32;34015;-73
2022/04/05 06:58:40;;;;;;;11.93;6.15;;;;;;;9.79;48.22;99124.97;4480864;32;33868;-73
2022/04/05 07:01:09;;;;;;;13.25;7.45;;;;;;;10.42;47.32;99133.28;4471780;32;33900;-73
2022/04/05 07:03:37;;;;;;;11.68;6.72;;;;;;;10.86;47.55;99126.81;4486715;32;33995;-73
2022/04/05 07:06:04;;;;;;;14.10;6.57;;;;;;;11.04;45.53;99128.75;4472375;32;34252;-73
2022/04/05 07:08:32;;;;;;;9.85;6.05;;;;;;;11.19;44.30;99131.13;4472424;32;33077;-73
2022/04/05 07:11:02;;;;;;;10.45;6.35;;;;;;;11.31;44.35;99129.31;4472504;32;33390;-73
2022/04/05 07:13:32;;;;;;;10.13;6.18;;;;;;;11.54;44.14;99132.25;4472721;32;33595;-73
2022/04/05 07:16:02;;;;;;;12.57;6.43;;;;;;;11.63;43.28;99137.44;4472586;32;34631;-73
2022/04/05 07:18:29;;;;;;;9.27;5.45;;;;;;;11.39;44.29;99128.19;4486538;32;34569;-73
2022/04/05 07:20:57;;;;;;;9.60;6.03;;;;;;;11.64;43.68;99136.38;4472081;32;31993;-73
2022/04/05 07:23:25;;;;;;;11.55;6.12;;;;;;;11.67;44.05;99134.00;4486437;32;33733;-73
2022/04/05 07:25:53;;;;;;;10.27;6.12;;;;;;;11.94;43.56;99133.69;4484865;31;34264;-74
2022/04/05 07:28:20;;;;;;;10.05;5.95;;;;;;;11.94;43.00;99123.50;4459027;32;33708;-74
2022/04/05 07:30:48;;;;;;;10.98;5.97;;;;;;;12.06;43.40;99121.66;4472184;32;34119;-74
2022/04/05 07:33:15;;;;;;;10.55;6.47;;;;;;;12.09;42.57;99123.09;4471952;32;33598;-73
2022/04/05 07:35:43;;;;;;;9.65;5.95;;;;;;;12.00;42.61;99110.75;4472584;32;35268;-74
2022/04/05 07:38:12;;;;;;;11.20;5.70;;;;;;;11.75;42.86;99113.56;4486305;32;33835;-73
2022/04/05 07:40:49;;;;;;;9.50;6.30;;;;;;;11.95;42.91;99121.59;4472334;32;34043;-73
2022/04/05 07:43:22;;;;;;;10.82;6.45;;;;;;;12.06;43.42;99107.91;4473220;32;34477;-74
2022/04/05 07:45:51;;;;;;;12.35;6.97;;;;;;;12.23;42.86;99104.50;4472057;32;35352;-73
2022/04/05 07:48:20;;;;;;;14.20;7.97;;;;;;;11.79;44.06;99104.66;4459396;32;34532;-85
2022/04/05 07:50:48;;;;;;;10.38;6.80;;;;;;;11.87;44.76;99115.34;4472182;32;33143;-73
2022/04/05 07:53:16;;;;;;;11.05;6.70;;;;;;;11.91;46.32;99112.97;4471819;32;33662;-73
2022/04/05 07:55:44;;;;;;;12.50;6.45;;;;;;;11.84;44.94;99117.72;4472218;32;34687;-74
2022/04/05 07:58:11;;;;;;;13.88;6.25;;;;;;;12.05;44.02;99121.91;4485921;32;33700;-73
2022/04/05 08:00:39;;;;;;;12.15;6.50;;;;;;;11.98;44.08;99119.22;4472045;32;33301;-73
2022/04/05 08:03:06;;;;;;;12.48;5.75;;;;;;;11.82;43.78;99128.09;4485971;32;33611;-74
2022/04/05 08:05:34;;;;;;;9.13;5.78;;;;;;;11.61;44.65;99134.91;4486118;32;34261;-73
2022/04/05 08:08:01;;;;;;;10.45;5.62;;;;;;;11.82;44.28;99120.69;4471776;32;33889;-73
2022/04/05 08:10:29;;;;;;;10.13;5.78;;;;;;;12.20;43.01;99123.16;4458978;32;32978;-73
2022/04/05 08:12:57;;;;;;;9.55;5.78;;;;;;;12.50;42.58;99122.28;4471508;32;32259;-74
2022/04/05 08:15:24;;;;;;;7.85;4.95;;;;;;;12.57;41.07;99114.75;4471792;32;34370;-73
2022/04/05 08:17:52;;;;;;;11.32;5.53;;;;;;;12.50;41.89;99125.03;4485899;32;33997;-73
2022/04/05 08:20:20;;;;;;;11.07;5.32;;;;;;;12.76;41.13;99110.84;4471938;32;33273;-74
2022/04/05 08:22:47;;;;;;;8.77;6.07;;;;;;;12.68;41.80;99113.09;4485574;32;33681;-74
2022/04/05 08:25:17;;;;;;;9.23;5.72;;;;;;;12.92;40.05;99119.50;4459172;32;34348;-74
2022/04/05 08:27:47;;;;;;;10.55;6.75;;;;;;;12.77;41.20;99120.78;4458638;32;33318;-74
2022/04/05 08:30:17;;;;;;;11.85;5.90;;;;;;;12.72;41.57;99117.91;4471665;32;31912;-74
2022/04/05 08:32:47;;;;;;;9.57;6.18;;;;;;;12.96;41.09;99121.53;4471962;32;33667;-73
2022/04/05 08:35:16;;;;;;;11.07;6.05;;;;;;;13.06;41.37;99124.50;4459018;32;34399;-73
2022/04/05 08:37:45;;;;;;;15.90;6.15;;;;;;;13.23;41.30;99124.66;4458788;32;32546;-74
2022/04/05 08:40:14;;;;;;;9.95;6.43;;;;;;;13.34;41.61;99118.31;4459042;32;32985;-73
2022/04/05 08:42:43;;;;;;;11.52;6.35;;;;;;;13.63;40.87;99121.16;4485666;32;33778;-74
2022/04/05 08:45:13;;;;;;;9.73;5.35;;;;;;;13.58;40.99;99123.81;4471659;32;34324;-73
2022/04/05 08:47:49;;;;;;;11.38;5.62;;;;;;;13.00;40.62;99116.37;4485918;32;33738;-73
2022/04/05 08:50:19;;;;;;;11.50;5.95;;;;;;;13.01;39.23;99123.53;4458841;32;33426;-73
2022/04/05 08:52:48;;;;;;;7.72;4.47;;;;;;;12.98;39.01;99111.13;4458203;32;34447;-73
2022/04/05 08:55:16;;;;;;;8.63;5.12;;;;;;;13.51;38.54;99118.41;4471664;32;35203;-74
2022/04/05 08:57:44;;;;;;;8.95;5.78;;;;;;;13.80;37.37;99113.78;4471538;32;34517;-73
2022/04/05 09:00:19;;;;;;;11.05;5.95;;;;;;;13.75;38.24;99113.66;4471537;32;33042;-73
2022/04/05 09:03:01;;;;;;;8.25;4.75;;;;;;;13.86;37.98;99101.75;4471684;32;34563;-73
2022/04/05 09:05:40;;;;;;;7.22;4.45;;;;;;;13.93;37.51;99099.72;4485550;32;34696;-73
2022/04/05 09:08:18;;;;;;;8.85;4.50;;;;;;;13.98;36.97;99108.09;4458532;32;33461;-72
2022/04/05 09:10:53;;;;;;;8.57;5.10;;;;;;;14.17;37.39;99109.56;4458674;32;32617;-73
2022/04/05 09:13:27;;;;;;;8.48;5.10;;;;;;;14.03;37.71;99110.13;4471450;32;33598;-73
2022/04/05 09:15:59;;;;;;;7.40;4.70;;;;;;;13.95;38.67;99104.97;4485811;32;34448;-73
2022/04/05 09:18:39;;;;;;;9.20;5.30;;;;;;;13.81;37.48;99105.25;4471632;32;34051;-73
2022/04/05 09:21:15;;;;;;;7.85;4.85;;;;;;;13.67;39.07;99114.03;4471259;32;33450;-73
2022/04/05 09:23:47;;;;;;;8.60;5.68;;;;;;;13.75;39.47;99114.50;4472136;32;33593;-73
2022/04/05 09:26:24;;;;;;;10.65;5.82;;;;;;;13.41;40.34;99113.50;4485924;32;33506;-73
2022/04/05 09:28:56;;;;;;;9.55;6.10;;;;;;;13.67;39.53;99106.59;4471623;32;33975;-73
2022/04/05 09:31:32;;;;;;;8.52;5.72;;;;;;;13.72;39.93;99105.88;4458979;32;31759;-73
2022/04/05 09:34:08;;;;;;;11.95;6.78;;;;;;;13.74;40.57;99109.22;4458919;32;33898;-73
2022/04/05 09:36:43;;;;;;;10.23;5.62;;;;;;;13.31;41.15;99107.75;4471584;32;34570;-73
2022/04/05 09:39:16;;;;;;;11.18;6.37;;;;;;;13.48;41.12;99103.19;4471410;32;34111;-73
2022/04/05 09:41:56;;;;;;;11.55;6.12;;;;;;;13.51;41.10;99110.97;4485350;32;34232;-73
2022/04/05 09:44:43;;;;;;;11.88;6.50;;;;;;;13.21;42.25;99115.78;4485423;32;33665;-73
2022/04/05 09:47:20;;;;;;;13.10;6.30;;;;;;;13.24;42.04;99112.56;4471919;32;34451;-73
2022/04/05 09:49:53;;;;;;;9.30;6.30;;;;;;;13.23;42.25;99115.56;4471616;32;34552;-73
2022/04/05 09:52:34;;;;;;;9.85;5.80;;;;;;;12.75;43.02;99114.69;4485208;32;33396;-73
2022/04/05 09:55:17;;;;;;;8.77;5.43;;;;;;;13.11;42.80;99119.13;4471165;32;33623;-73
2022/04/05 09:57:46;;;;;;;9.57;5.35;;;;;;;13.02;43.28;99108.69;4485212;32;35369;-73
2022/04/05 10:00:20;;;;;;;9.13;4.97;;;;;;;13.26;40.86;99102.13;4471628;32;34629;-72
2022/04/05 10:03:08;;;;;;;8.57;5.07;;;;;;;13.13;40.76;99107.84;4471306;32;34069;-73
2022/04/05 10:05:39;;;;;;;10.30;5.20;;;;;;;13.10;40.64;99109.16;4472399;32;33683;-72
2022/04/05 10:08:07;;;;;;;9.57;5.37;;;;;;;13.29;40.63;99109.09;4487004;32;34366;-73
2022/04/05 10:10:34;;;;;;;10.80;5.40;;;;;;;12.72;41.24;99109.66;4446701;32;33277;-73
2022/04/05 10:13:04;;;;;;;14.48;5.37;;;;;;;12.85;41.12;99108.59;4472719;32;32636;-72
2022/04/05 10:15:35;;;;;;;8.75;5.18;;;;;;;12.78;41.39;99110.63;4459822;32;32376;-72
2022/04/05 10:18:05;;;;;;;11.65;5.00;;;;;;;12.83;41.16;99113.50;4472991;32;34365;-73
2022/04/05 10:20:38;;;;;;;10.48;5.18;;;;;;;13.01;41.59;99112.53;4473157;32;34728;-72
2022/04/05 10:23:11;;;;;;;8.77;5.25;;;;;;;12.89;42.00;99103.44;4473513;32;33375;-74
2022/04/05 10:25:41;;;;;;;8.70;5.43;;;;;;;13.20;41.23;99100.34;4473039;32;34559;-73
2022/04/05 10:28:11;;;;;;;10.95;5.65;;;;;;;13.71;41.09;99101.44;4472954;32;35292;-73
2022/04/05 10:30:53;;;;;;;15.45;5.60;;;;;;;14.03;40.93;99096.31;4460248;32;34566;-73
2022/04/05 10:33:28;;;;;;;9.00;5.30;;;;;;;13.78;41.03;99093.87;4472910;32;34228;-72
2022/04/05 10:36:00;;;;;;;8.38;4.62;;;;;;;13.98;40.26;99090.69;4460007;32;33596;-73
2022/04/05 10:38:30;;;;;;;8.27;5.03;;;;;;;14.52;39.39;99096.69;4472682;32;34302;-73
2022/04/05 10:41:14;;;;;;;9.48;5.45;;;;;;;14.71;39.25;99090.69;4486837;32;34649;-73
2022/04/05 10:44:08;;;;;;;9.50;5.07;;;;;;;14.95;38.68;99093.28;4486803;32;34202;-73
2022/04/05 10:46:56;;;;;;;7.60;4.90;;;;;;;15.14;37.45;99086.37;4461477;32;34585;-73
2022/04/05 10:49:51;;;;;;;9.80;4.65;;;;;;;15.17;36.61;99088.63;4475473;32;33506;-73
2022/04/05 10:52:24;;;;;;;9.68;4.87;;;;;;;15.46;36.10;99090.19;4459401;32;33823;-73
2022/04/05 10:55:16;;;;;;;8.80;5.35;;;;;;;15.03;36.23;99095.59;4459655;32;31605;-73
2022/04/05 10:57:46;;;;;;;9.77;5.87;;;;;;;14.56;37.47;99095.94;4486787;32;33572;-74
2022/04/05 11:00:19;;;;;;;8.48;4.97;;;;;;;14.80;37.34;99094.72;4472968;32;34401;-74
2022/04/05 11:02:55;;;;;;;7.00;4.50;;;;;;;15.05;37.42;99088.72;4472869;32;33611;-74
2022/04/05 11:05:32;;;;;;;7.05;4.22;;;;;;;15.38;35.75;99087.84;4459581;32;31789;-74
2022/04/05 11:08:02;;;;;;;8.27;5.05;;;;;;;15.81;36.48;99089.00;4459975;32;33137;-75
2022/04/05 11:10:36;;;;;;;7.55;4.28;;;;;;;15.97;34.10;99090.00;4459379;32;32708;-75
2022/04/05 11:13:06;;;;;;;7.93;4.47;;;;;;;15.47;34.49;99086.31;4486875;32;33962;-75
2022/04/05 11:15:44;;;;;;;7.45;4.60;;;;;;;16.12;34.66;99092.97;4486125;32;32736;-74
2022/04/05 11:18:19;;;;;;;6.37;4.03;;;;;;;15.86;34.80;99093.75;4472295;32;32258;-75
2022/04/05 11:20:56;;;;;;;7.20;4.20;;;;;;;15.31;35.10;99089.97;4472250;32;32944;-74
2022/04/05 11:23:45;;;;;;;5.60;3.12;;;;;;;15.06;35.62;99103.38;4459146;32;32679;-75
2022/04/05 11:26:27;;;;;;;6.18;3.45;;;;;;;14.76;35.94;99098.22;4484915;31;34217;-76
2022/04/05 11:28:56;;;;;;;7.90;3.37;;;;;;;14.83;36.38;99094.22;4486580;32;34510;-75
2022/04/05 11:31:28;;;;;;;8.02;3.22;;;;;;;15.05;36.14;99104.47;4459329;32;33898;-75
2022/04/05 11:33:56;;;;;;;7.22;3.33;;;;;;;15.36;36.08;99092.81;4484933;32;34621;-75
2022/04/05 11:36:25;;;;;;;6.50;3.40;;;;;;;14.96;36.57;99098.53;4472398;32;33152;-75
2022/04/05 11:38:58;;;;;;;5.95;3.45;;;;;;;14.66;37.30;99098.88;4472291;32;32094;-75
2022/04/05 11:41:28;;;;;;;7.97;5.00;;;;;;;14.29;38.06;99108.69;4485291;32;35167;-75
2022/04/05 11:43:58;;;;;;;13.90;7.57;;;;;;;14.44;38.27;99107.06;4484794;32;34312;-75
2022/04/05 11:46:31;;;;;;;6.00;3.90;;;;;;;14.24;39.63;99108.59;4484973;32;33322;-76